sensor_id;sensor_type;location;lat;lon;timestamp;temperature;humidity
76291;DHT22;65100;46.884;17.410;2024-03-23T00:53:25;7.71;77.89
76291;DHT22;65100;46.884;17.410;2024-03-23T00:55:51;7.76;78.40
76291;DHT22;65100;46.884;17.410;2024-03-23T00:58:16;7.81;78.54
76291;DHT22;65100;46.884;17.410;2024-03-23T01:00:42;7.83;77.59
76291;DHT22;65100;46.884;17.410;2024-03-23T01:03:07;7.73;77.47
76291;DHT22;65100;46.884;17.410;2024-03-23T01:05:33;7.51;76.80
76291;DHT22;65100;46.884;17.410;2024-03-23T01:07:58;7.42;78.34
76291;DHT22;65100;46.884;17.410;2024-03-23T01:10:23;7.38;79.04
76291;DHT22;65100;46.884;17.410;2024-03-23T01:12:49;7.36;77.92
76291;DHT22;65100;46.884;17.410;2024-03-23T01:15:15;7.39;79.20
76291;DHT22;65100;46.884;17.410;2024-03-23T01:17:40;7.44;79.05
76291;DHT22;65100;46.884;17.410;2024-03-23T01:20:06;7.51;79.54
76291;DHT22;65100;46.884;17.410;2024-03-23T01:22:32;7.58;79.41
76291;DHT22;65100;46.884;17.410;2024-03-23T01:24:58;7.52;79.64
76291;DHT22;65100;46.884;17.410;2024-03-23T01:27:24;7.61;79.11
76291;DHT22;65100;46.884;17.410;2024-03-23T01:29:49;7.51;78.87
76291;DHT22;65100;46.884;17.410;2024-03-23T01:32:14;7.45;79.01
76291;DHT22;65100;46.884;17.410;2024-03-23T01:34:40;7.32;79.03
76291;DHT22;65100;46.884;17.410;2024-03-23T01:37:05;7.49;79.12
76291;DHT22;65100;46.884;17.410;2024-03-23T01:39:31;7.52;79.14
76291;DHT22;65100;46.884;17.410;2024-03-23T01:41:56;7.54;78.82
76291;DHT22;65100;46.884;17.410;2024-03-23T01:44:22;7.47;79.37
76291;DHT22;65100;46.884;17.410;2024-03-23T01:46:47;7.45;79.64
76291;DHT22;65100;46.884;17.410;2024-03-23T01:49:13;7.35;79.82
76291;DHT22;65100;46.884;17.410;2024-03-23T01:51:39;7.31;80.09
76291;DHT22;65100;46.884;17.410;2024-03-23T01:54:05;7.32;80.06
76291;DHT22;65100;46.884;17.410;2024-03-23T01:56:33;7.27;80.09
76291;DHT22;65100;46.884;17.410;2024-03-23T01:59:01;7.28;80.23
76291;DHT22;65100;46.884;17.410;2024-03-23T02:01:27;7.41;80.95
76291;DHT22;65100;46.884;17.410;2024-03-23T02:03:52;7.28;79.97
76291;DHT22;65100;46.884;17.410;2024-03-23T02:06:18;7.22;80.12
76291;DHT22;65100;46.884;17.410;2024-03-23T02:08:43;7.22;80.36
76291;DHT22;65100;46.884;17.410;2024-03-23T02:11:09;7.12;79.84
76291;DHT22;65100;46.884;17.410;2024-03-23T02:13:35;7.22;80.41
76291;DHT22;65100;46.884;17.410;2024-03-23T02:16:01;7.28;80.34
76291;DHT22;65100;46.884;17.410;2024-03-23T02:18:26;7.32;80.79
76291;DHT22;65100;46.884;17.410;2024-03-23T02:20:51;7.29;80.20
76291;DHT22;65100;46.884;17.410;2024-03-23T02:23:17;7.19;80.16
76291;DHT22;65100;46.884;17.410;2024-03-23T02:25:43;7.15;79.87
76291;DHT22;65100;46.884;17.410;2024-03-23T02:28:09;7.04;79.26
76291;DHT22;65100;46.884;17.410;2024-03-23T02:30:34;7.00;79.58
76291;DHT22;65100;46.884;17.410;2024-03-23T02:33:00;7.01;79.55
76291;DHT22;65100;46.884;17.410;2024-03-23T02:35:26;7.04;79.23
76291;DHT22;65100;46.884;17.410;2024-03-23T02:37:51;7.00;79.64
76291;DHT22;65100;46.884;17.410;2024-03-23T02:40:18;6.95;79.80
76291;DHT22;65100;46.884;17.410;2024-03-23T02:42:43;6.93;79.53
76291;DHT22;65100;46.884;17.410;2024-03-23T02:45:09;6.95;79.34
76291;DHT22;65100;46.884;17.410;2024-03-23T02:47:34;6.83;79.50
76291;DHT22;65100;46.884;17.410;2024-03-23T02:50:00;6.88;80.38
76291;DHT22;65100;46.884;17.410;2024-03-23T02:52:25;6.87;80.21
76291;DHT22;65100;46.884;17.410;2024-03-23T02:54:51;6.81;80.35
76291;DHT22;65100;46.884;17.410;2024-03-23T02:57:16;6.81;80.47
76291;DHT22;65100;46.884;17.410;2024-03-23T02:59:42;6.84;80.67
76291;DHT22;65100;46.884;17.410;2024-03-23T03:02:07;6.74;80.38
76291;DHT22;65100;46.884;17.410;2024-03-23T03:04:33;6.67;81.09
76291;DHT22;65100;46.884;17.410;2024-03-23T03:06:58;6.56;80.42
76291;DHT22;65100;46.884;17.410;2024-03-23T03:09:24;6.60;81.95
76291;DHT22;65100;46.884;17.410;2024-03-23T03:11:49;6.70;81.05
76291;DHT22;65100;46.884;17.410;2024-03-23T03:14:15;6.80;82.47
76291;DHT22;65100;46.884;17.410;2024-03-23T03:16:40;6.77;81.74
76291;DHT22;65100;46.884;17.410;2024-03-23T03:19:06;6.85;81.59
76291;DHT22;65100;46.884;17.410;2024-03-23T03:21:31;6.71;80.85
76291;DHT22;65100;46.884;17.410;2024-03-23T03:23:57;6.88;81.64
76291;DHT22;65100;46.884;17.410;2024-03-23T03:26:23;6.91;81.68
76291;DHT22;65100;46.884;17.410;2024-03-23T03:28:50;6.94;81.06
76291;DHT22;65100;46.884;17.410;2024-03-23T03:31:16;7.03;81.85
76291;DHT22;65100;46.884;17.410;2024-03-23T03:33:42;7.05;81.37
76291;DHT22;65100;46.884;17.410;2024-03-23T03:36:07;7.01;81.25
76291;DHT22;65100;46.884;17.410;2024-03-23T03:38:33;7.01;81.34
76291;DHT22;65100;46.884;17.410;2024-03-23T03:41:00;7.09;81.67
76291;DHT22;65100;46.884;17.410;2024-03-23T03:43:26;7.14;81.55
76291;DHT22;65100;46.884;17.410;2024-03-23T03:45:52;7.32;82.31
76291;DHT22;65100;46.884;17.410;2024-03-23T03:48:18;7.29;81.71
76291;DHT22;65100;46.884;17.410;2024-03-23T03:50:44;7.36;81.78
76291;DHT22;65100;46.884;17.410;2024-03-23T03:53:09;7.42;81.71
76291;DHT22;65100;46.884;17.410;2024-03-23T03:55:34;7.48;81.81
76291;DHT22;65100;46.884;17.410;2024-03-23T03:58:00;7.65;82.78
76291;DHT22;65100;46.884;17.410;2024-03-23T04:00:25;7.62;82.04
76291;DHT22;65100;46.884;17.410;2024-03-23T04:02:51;7.78;82.26
76291;DHT22;65100;46.884;17.410;2024-03-23T04:05:16;7.76;82.34
76291;DHT22;65100;46.884;17.410;2024-03-23T04:07:42;7.93;82.24
76291;DHT22;65100;46.884;17.410;2024-03-23T04:10:08;7.96;81.99
76291;DHT22;65100;46.884;17.410;2024-03-23T04:12:34;7.92;81.87
76291;DHT22;65100;46.884;17.410;2024-03-23T04:14:59;7.93;81.74
76291;DHT22;65100;46.884;17.410;2024-03-23T04:17:25;8.02;82.48
76291;DHT22;65100;46.884;17.410;2024-03-23T04:19:52;8.03;81.40
76291;DHT22;65100;46.884;17.410;2024-03-23T04:22:19;8.06;81.12
76291;DHT22;65100;46.884;17.410;2024-03-23T04:24:44;8.02;80.71
76291;DHT22;65100;46.884;17.410;2024-03-23T04:27:10;8.00;80.69
76291;DHT22;65100;46.884;17.410;2024-03-23T04:29:35;8.03;81.43
76291;DHT22;65100;46.884;17.410;2024-03-23T04:32:01;8.09;81.88
76291;DHT22;65100;46.884;17.410;2024-03-23T04:34:27;8.09;80.75
76291;DHT22;65100;46.884;17.410;2024-03-23T04:36:52;8.09;80.62
76291;DHT22;65100;46.884;17.410;2024-03-23T04:39:18;8.04;79.84
76291;DHT22;65100;46.884;17.410;2024-03-23T04:41:44;7.81;80.86
76291;DHT22;65100;46.884;17.410;2024-03-23T04:44:10;7.79;80.55
76291;DHT22;65100;46.884;17.410;2024-03-23T04:46:36;7.93;81.18
76291;DHT22;65100;46.884;17.410;2024-03-23T04:49:01;7.86;81.44
76291;DHT22;65100;46.884;17.410;2024-03-23T04:51:35;7.86;80.56
76291;DHT22;65100;46.884;17.410;2024-03-23T04:54:01;7.89;82.06
76291;DHT22;65100;46.884;17.410;2024-03-23T04:56:27;7.82;82.67
76291;DHT22;65100;46.884;17.410;2024-03-23T04:58:52;7.89;81.33
76291;DHT22;65100;46.884;17.410;2024-03-23T05:01:18;8.02;80.16
76291;DHT22;65100;46.884;17.410;2024-03-23T05:03:44;8.12;81.75
76291;DHT22;65100;46.884;17.410;2024-03-23T05:06:11;8.20;80.27
76291;DHT22;65100;46.884;17.410;2024-03-23T05:08:36;8.14;81.15
76291;DHT22;65100;46.884;17.410;2024-03-23T05:11:02;8.22;83.46
76291;DHT22;65100;46.884;17.410;2024-03-23T05:13:28;8.36;83.20
76291;DHT22;65100;46.884;17.410;2024-03-23T05:15:54;8.43;82.54
76291;DHT22;65100;46.884;17.410;2024-03-23T05:18:20;8.56;83.19
76291;DHT22;65100;46.884;17.410;2024-03-23T05:20:45;8.87;83.00
76291;DHT22;65100;46.884;17.410;2024-03-23T05:23:11;9.10;82.30
76291;DHT22;65100;46.884;17.410;2024-03-23T05:25:36;9.08;81.40
76291;DHT22;65100;46.884;17.410;2024-03-23T05:28:02;9.21;81.59
76291;DHT22;65100;46.884;17.410;2024-03-23T05:30:27;9.32;79.70
76291;DHT22;65100;46.884;17.410;2024-03-23T05:32:54;9.39;79.33
76291;DHT22;65100;46.884;17.410;2024-03-23T05:35:19;9.31;79.76
76291;DHT22;65100;46.884;17.410;2024-03-23T05:37:44;9.16;80.44
76291;DHT22;65100;46.884;17.410;2024-03-23T05:40:11;9.24;80.82
76291;DHT22;65100;46.884;17.410;2024-03-23T05:42:38;9.01;80.72
76291;DHT22;65100;46.884;17.410;2024-03-23T05:45:04;8.87;81.51
76291;DHT22;65100;46.884;17.410;2024-03-23T05:47:32;8.84;82.32
76291;DHT22;65100;46.884;17.410;2024-03-23T05:49:57;8.89;82.78
76291;DHT22;65100;46.884;17.410;2024-03-23T05:52:23;9.35;81.96
76291;DHT22;65100;46.884;17.410;2024-03-23T05:54:51;9.59;80.91
76291;DHT22;65100;46.884;17.410;2024-03-23T05:57:16;9.55;80.75
76291;DHT22;65100;46.884;17.410;2024-03-23T05:59:42;9.59;81.24
76291;DHT22;65100;46.884;17.410;2024-03-23T06:02:07;9.66;81.15
76291;DHT22;65100;46.884;17.410;2024-03-23T06:04:35;9.82;80.75
76291;DHT22;65100;46.884;17.410;2024-03-23T06:07:01;9.92;80.61
76291;DHT22;65100;46.884;17.410;2024-03-23T06:09:27;10.16;80.13
76291;DHT22;65100;46.884;17.410;2024-03-23T06:11:52;10.16;80.68
76291;DHT22;65100;46.884;17.410;2024-03-23T06:14:17;10.32;79.73
76291;DHT22;65100;46.884;17.410;2024-03-23T06:16:43;10.72;78.53
76291;DHT22;65100;46.884;17.410;2024-03-23T06:19:08;10.95;78.24
76291;DHT22;65100;46.884;17.410;2024-03-23T06:21:35;11.22;77.68
76291;DHT22;65100;46.884;17.410;2024-03-23T06:24:00;11.46;76.79
76291;DHT22;65100;46.884;17.410;2024-03-23T06:26:25;11.69;75.72
76291;DHT22;65100;46.884;17.410;2024-03-23T06:28:51;11.65;75.71
76291;DHT22;65100;46.884;17.410;2024-03-23T06:31:16;11.75;75.65
76291;DHT22;65100;46.884;17.410;2024-03-23T06:33:43;11.73;75.70
76291;DHT22;65100;46.884;17.410;2024-03-23T06:36:10;11.89;74.87
76291;DHT22;65100;46.884;17.410;2024-03-23T06:38:36;11.92;75.38
76291;DHT22;65100;46.884;17.410;2024-03-23T06:41:05;11.94;75.23
76291;DHT22;65100;46.884;17.410;2024-03-23T06:43:31;11.87;75.83
76291;DHT22;65100;46.884;17.410;2024-03-23T06:45:57;11.92;74.99
76291;DHT22;65100;46.884;17.410;2024-03-23T06:48:22;11.94;75.24
76291;DHT22;65100;46.884;17.410;2024-03-23T06:50:48;12.16;75.10
76291;DHT22;65100;46.884;17.410;2024-03-23T06:53:14;12.13;75.21
76291;DHT22;65100;46.884;17.410;2024-03-23T06:55:40;12.61;74.61
76291;DHT22;65100;46.884;17.410;2024-03-23T06:58:06;12.80;74.49
76291;DHT22;65100;46.884;17.410;2024-03-23T07:00:32;13.39;72.88
76291;DHT22;65100;46.884;17.410;2024-03-23T07:02:58;14.34;69.58
76291;DHT22;65100;46.884;17.410;2024-03-23T07:05:23;14.43;69.63
76291;DHT22;65100;46.884;17.410;2024-03-23T07:07:49;14.61;70.19
76291;DHT22;65100;46.884;17.410;2024-03-23T07:10:15;15.45;66.18
76291;DHT22;65100;46.884;17.410;2024-03-23T07:12:40;15.49;66.86
76291;DHT22;65100;46.884;17.410;2024-03-23T07:15:06;15.38;66.54
76291;DHT22;65100;46.884;17.410;2024-03-23T07:17:33;16.14;63.03
76291;DHT22;65100;46.884;17.410;2024-03-23T07:20:00;14.94;66.12
76291;DHT22;65100;46.884;17.410;2024-03-23T07:22:29;14.73;67.40
76291;DHT22;65100;46.884;17.410;2024-03-23T07:24:55;14.50;68.55
76291;DHT22;65100;46.884;17.410;2024-03-23T07:27:20;14.14;67.61
76291;DHT22;65100;46.884;17.410;2024-03-23T07:29:46;14.00;67.79
76291;DHT22;65100;46.884;17.410;2024-03-23T07:32:12;13.93;69.13
76291;DHT22;65100;46.884;17.410;2024-03-23T07:34:37;13.65;69.91
76291;DHT22;65100;46.884;17.410;2024-03-23T07:37:03;13.93;69.64
76291;DHT22;65100;46.884;17.410;2024-03-23T07:39:28;14.05;69.53
76291;DHT22;65100;46.884;17.410;2024-03-23T07:41:54;13.79;68.91
76291;DHT22;65100;46.884;17.410;2024-03-23T07:44:19;14.13;67.88
76291;DHT22;65100;46.884;17.410;2024-03-23T07:46:44;14.06;70.08
76291;DHT22;65100;46.884;17.410;2024-03-23T07:49:10;14.50;68.28
76291;DHT22;65100;46.884;17.410;2024-03-23T07:51:35;14.37;68.47
76291;DHT22;65100;46.884;17.410;2024-03-23T07:54:01;14.41;67.36
76291;DHT22;65100;46.884;17.410;2024-03-23T07:56:26;14.30;68.87
76291;DHT22;65100;46.884;17.410;2024-03-23T07:58:52;14.38;68.85
76291;DHT22;65100;46.884;17.410;2024-03-23T08:01:17;14.50;67.90
76291;DHT22;65100;46.884;17.410;2024-03-23T08:03:44;14.45;68.40
76291;DHT22;65100;46.884;17.410;2024-03-23T08:06:17;14.36;68.40
76291;DHT22;65100;46.884;17.410;2024-03-23T08:08:44;14.40;68.18
76291;DHT22;65100;46.884;17.410;2024-03-23T08:11:10;14.53;67.56
76291;DHT22;65100;46.884;17.410;2024-03-23T08:13:40;14.45;68.10
76291;DHT22;65100;46.884;17.410;2024-03-23T08:16:07;14.48;68.20
76291;DHT22;65100;46.884;17.410;2024-03-23T08:18:34;14.74;68.48
76291;DHT22;65100;46.884;17.410;2024-03-23T08:21:03;14.94;67.28
76291;DHT22;65100;46.884;17.410;2024-03-23T08:23:31;15.02;66.51
76291;DHT22;65100;46.884;17.410;2024-03-23T08:26:03;15.31;66.65
76291;DHT22;65100;46.884;17.410;2024-03-23T08:28:29;15.78;64.89
76291;DHT22;65100;46.884;17.410;2024-03-23T08:30:55;15.58;64.23
76291;DHT22;65100;46.884;17.410;2024-03-23T08:33:21;15.42;65.62
76291;DHT22;65100;46.884;17.410;2024-03-23T08:36:00;15.56;63.84
76291;DHT22;65100;46.884;17.410;2024-03-23T08:38:26;15.66;64.42
76291;DHT22;65100;46.884;17.410;2024-03-23T08:40:59;15.79;64.16
76291;DHT22;65100;46.884;17.410;2024-03-23T08:43:26;15.79;63.06
76291;DHT22;65100;46.884;17.410;2024-03-23T08:45:52;15.81;64.20
76291;DHT22;65100;46.884;17.410;2024-03-23T08:48:19;15.70;63.95
76291;DHT22;65100;46.884;17.410;2024-03-23T08:50:46;15.66;63.12
76291;DHT22;65100;46.884;17.410;2024-03-23T08:53:12;15.73;62.65
76291;DHT22;65100;46.884;17.410;2024-03-23T08:55:37;15.86;63.27
76291;DHT22;65100;46.884;17.410;2024-03-23T08:58:02;16.06;63.53
76291;DHT22;65100;46.884;17.410;2024-03-23T09:00:29;16.53;61.75
76291;DHT22;65100;46.884;17.410;2024-03-23T09:02:55;16.84;62.16
76291;DHT22;65100;46.884;17.410;2024-03-23T09:05:22;17.08;59.56
76291;DHT22;65100;46.884;17.410;2024-03-23T09:07:49;17.25;59.35
76291;DHT22;65100;46.884;17.410;2024-03-23T09:10:15;17.32;59.31
76291;DHT22;65100;46.884;17.410;2024-03-23T09:12:40;17.31;59.14
76291;DHT22;65100;46.884;17.410;2024-03-23T09:15:06;17.36;59.13
76291;DHT22;65100;46.884;17.410;2024-03-23T09:17:31;17.55;58.11
76291;DHT22;65100;46.884;17.410;2024-03-23T09:19:57;17.78;58.12
76291;DHT22;65100;46.884;17.410;2024-03-23T09:22:22;17.72;57.75
76291;DHT22;65100;46.884;17.410;2024-03-23T09:24:47;17.81;58.50
76291;DHT22;65100;46.884;17.410;2024-03-23T09:27:13;17.82;57.64
76291;DHT22;65100;46.884;17.410;2024-03-23T09:29:38;18.03;57.23
76291;DHT22;65100;46.884;17.410;2024-03-23T09:32:04;17.99;56.45
76291;DHT22;65100;46.884;17.410;2024-03-23T09:34:30;18.16;56.12
76291;DHT22;65100;46.884;17.410;2024-03-23T09:36:55;18.13;56.88
76291;DHT22;65100;46.884;17.410;2024-03-23T09:39:21;18.07;58.61
76291;DHT22;65100;46.884;17.410;2024-03-23T09:41:46;18.25;55.66
76291;DHT22;65100;46.884;17.410;2024-03-23T09:44:12;18.19;55.02
76291;DHT22;65100;46.884;17.410;2024-03-23T09:46:38;18.41;55.20
76291;DHT22;65100;46.884;17.410;2024-03-23T09:49:08;18.68;54.43
76291;DHT22;65100;46.884;17.410;2024-03-23T09:51:36;18.68;53.47
76291;DHT22;65100;46.884;17.410;2024-03-23T09:54:02;18.77;55.69
76291;DHT22;65100;46.884;17.410;2024-03-23T09:56:27;19.04;54.78
76291;DHT22;65100;46.884;17.410;2024-03-23T09:59:03;19.18;52.33
76291;DHT22;65100;46.884;17.410;2024-03-23T10:01:32;19.34;52.16
76291;DHT22;65100;46.884;17.410;2024-03-23T10:03:57;19.38;52.91
76291;DHT22;65100;46.884;17.410;2024-03-23T10:06:23;19.44;48.78
76291;DHT22;65100;46.884;17.410;2024-03-23T10:08:52;19.62;49.80
76291;DHT22;65100;46.884;17.410;2024-03-23T10:11:19;19.68;51.08
76291;DHT22;65100;46.884;17.410;2024-03-23T10:13:46;19.85;49.10
76291;DHT22;65100;46.884;17.410;2024-03-23T10:16:12;19.97;49.00
76291;DHT22;65100;46.884;17.410;2024-03-23T10:18:45;19.94;48.40
76291;DHT22;65100;46.884;17.410;2024-03-23T10:21:11;19.94;47.21
76291;DHT22;65100;46.884;17.410;2024-03-23T10:23:41;20.08;49.34
76291;DHT22;65100;46.884;17.410;2024-03-23T10:26:23;20.10;50.25
76291;DHT22;65100;46.884;17.410;2024-03-23T10:29:10;19.76;47.70
76291;DHT22;65100;46.884;17.410;2024-03-23T10:31:37;19.76;48.14
76291;DHT22;65100;46.884;17.410;2024-03-23T10:34:06;19.93;47.30
76291;DHT22;65100;46.884;17.410;2024-03-23T10:36:34;19.90;48.54
76291;DHT22;65100;46.884;17.410;2024-03-23T10:38:59;20.13;48.29
76291;DHT22;65100;46.884;17.410;2024-03-23T10:41:29;20.02;47.12
76291;DHT22;65100;46.884;17.410;2024-03-23T10:43:58;20.29;47.73
76291;DHT22;65100;46.884;17.410;2024-03-23T10:46:23;20.48;46.66
76291;DHT22;65100;46.884;17.410;2024-03-23T10:48:49;20.50;46.88
76291;DHT22;65100;46.884;17.410;2024-03-23T10:51:14;20.27;44.75
76291;DHT22;65100;46.884;17.410;2024-03-23T10:53:40;20.10;46.20
76291;DHT22;65100;46.884;17.410;2024-03-23T10:56:06;20.22;47.56
76291;DHT22;65100;46.884;17.410;2024-03-23T10:58:46;20.30;47.20
76291;DHT22;65100;46.884;17.410;2024-03-23T11:01:13;20.39;47.35
76291;DHT22;65100;46.884;17.410;2024-03-23T11:03:39;20.46;48.81
76291;DHT22;65100;46.884;17.410;2024-03-23T11:06:06;20.39;47.57
76291;DHT22;65100;46.884;17.410;2024-03-23T11:08:33;20.54;48.74
76291;DHT22;65100;46.884;17.410;2024-03-23T11:11:17;20.56;45.36
76291;DHT22;65100;46.884;17.410;2024-03-23T11:13:45;20.64;48.46
76291;DHT22;65100;46.884;17.410;2024-03-23T11:16:16;20.63;48.83
76291;DHT22;65100;46.884;17.410;2024-03-23T11:18:43;20.64;44.14
76291;DHT22;65100;46.884;17.410;2024-03-23T11:21:09;20.77;43.35
76291;DHT22;65100;46.884;17.410;2024-03-23T11:23:35;20.74;42.91
76291;DHT22;65100;46.884;17.410;2024-03-23T11:26:01;20.69;40.67
76291;DHT22;65100;46.884;17.410;2024-03-23T11:28:26;20.60;42.23
76291;DHT22;65100;46.884;17.410;2024-03-23T11:30:52;20.54;43.42
76291;DHT22;65100;46.884;17.410;2024-03-23T11:33:17;20.39;43.60
76291;DHT22;65100;46.884;17.410;2024-03-23T11:35:43;20.27;42.65
76291;DHT22;65100;46.884;17.410;2024-03-23T11:38:15;20.36;44.62
76291;DHT22;65100;46.884;17.410;2024-03-23T11:40:49;20.33;43.73
76291;DHT22;65100;46.884;17.410;2024-03-23T11:43:17;20.27;43.02
76291;DHT22;65100;46.884;17.410;2024-03-23T11:45:45;20.10;42.90
76291;DHT22;65100;46.884;17.410;2024-03-23T11:48:16;20.06;43.92
76291;DHT22;65100;46.884;17.410;2024-03-23T11:50:49;19.90;42.50
76291;DHT22;65100;46.884;17.410;2024-03-23T11:53:22;19.87;43.36
76291;DHT22;65100;46.884;17.410;2024-03-23T11:55:52;19.96;45.74
76291;DHT22;65100;46.884;17.410;2024-03-23T11:58:22;20.08;44.24
76291;DHT22;65100;46.884;17.410;2024-03-23T12:00:58;20.03;45.26
76291;DHT22;65100;46.884;17.410;2024-03-23T12:03:25;19.99;44.42
76291;DHT22;65100;46.884;17.410;2024-03-23T12:05:52;19.96;44.17
76291;DHT22;65100;46.884;17.410;2024-03-23T12:08:39;19.92;45.32
76291;DHT22;65100;46.884;17.410;2024-03-23T12:11:14;20.03;46.11
76291;DHT22;65100;46.884;17.410;2024-03-23T12:13:41;19.85;43.84
76291;DHT22;65100;46.884;17.410;2024-03-23T12:18:41;19.99;46.40
76291;DHT22;65100;46.884;17.410;2024-03-23T12:21:07;19.94;45.74
76291;DHT22;65100;46.884;17.410;2024-03-23T12:23:33;20.10;44.80
76291;DHT22;65100;46.884;17.410;2024-03-23T12:25:59;20.09;44.54
76291;DHT22;65100;46.884;17.410;2024-03-23T12:28:25;20.13;46.09
76291;DHT22;65100;46.884;17.410;2024-03-23T12:30:51;20.08;44.63
76291;DHT22;65100;46.884;17.410;2024-03-23T12:33:17;20.13;44.91
76291;DHT22;65100;46.884;17.410;2024-03-23T12:35:42;20.02;43.97
76291;DHT22;65100;46.884;17.410;2024-03-23T12:38:08;20.06;45.25
76291;DHT22;65100;46.884;17.410;2024-03-23T12:40:33;19.92;45.41
76291;DHT22;65100;46.884;17.410;2024-03-23T12:42:59;19.96;44.95
76291;DHT22;65100;46.884;17.410;2024-03-23T12:45:24;19.90;44.69
76291;DHT22;65100;46.884;17.410;2024-03-23T12:47:50;19.99;44.82
76291;DHT22;65100;46.884;17.410;2024-03-23T12:50:19;20.09;44.95
76291;DHT22;65100;46.884;17.410;2024-03-23T12:52:44;19.97;45.52
76291;DHT22;65100;46.884;17.410;2024-03-23T12:55:10;19.99;44.34
76291;DHT22;65100;46.884;17.410;2024-03-23T12:57:35;20.02;43.95
76291;DHT22;65100;46.884;17.410;2024-03-23T13:00:02;19.85;42.96
76291;DHT22;65100;46.884;17.410;2024-03-23T13:02:28;19.82;45.58
76291;DHT22;65100;46.884;17.410;2024-03-23T13:04:54;19.86;44.64
76291;DHT22;65100;46.884;17.410;2024-03-23T13:07:21;19.85;44.55
76291;DHT22;65100;46.884;17.410;2024-03-23T13:09:47;19.78;43.80
76291;DHT22;65100;46.884;17.410;2024-03-23T13:12:12;19.83;44.04
76291;DHT22;65100;46.884;17.410;2024-03-23T13:14:38;19.81;43.81
76291;DHT22;65100;46.884;17.410;2024-03-23T13:17:05;19.78;43.07
76291;DHT22;65100;46.884;17.410;2024-03-23T13:19:30;19.83;43.55
76291;DHT22;65100;46.884;17.410;2024-03-23T13:21:59;19.93;44.51
76291;DHT22;65100;46.884;17.410;2024-03-23T13:24:28;20.10;43.92
76291;DHT22;65100;46.884;17.410;2024-03-23T13:26:55;20.09;44.26
76291;DHT22;65100;46.884;17.410;2024-03-23T13:29:21;20.00;42.09
76291;DHT22;65100;46.884;17.410;2024-03-23T13:31:48;19.97;43.45
76291;DHT22;65100;46.884;17.410;2024-03-23T13:34:14;19.93;42.23
76291;DHT22;65100;46.884;17.410;2024-03-23T13:36:41;19.85;40.50
76291;DHT22;65100;46.884;17.410;2024-03-23T13:39:07;19.97;41.66
76291;DHT22;65100;46.884;17.410;2024-03-23T13:41:43;19.87;41.02
76291;DHT22;65100;46.884;17.410;2024-03-23T13:44:13;19.93;40.09
76291;DHT22;65100;46.884;17.410;2024-03-23T13:46:40;19.93;40.40
76291;DHT22;65100;46.884;17.410;2024-03-23T13:49:18;19.93;43.52
76291;DHT22;65100;46.884;17.410;2024-03-23T13:51:46;19.99;40.51
76291;DHT22;65100;46.884;17.410;2024-03-23T13:54:12;20.03;42.14
76291;DHT22;65100;46.884;17.410;2024-03-23T13:56:38;19.94;41.82
76291;DHT22;65100;46.884;17.410;2024-03-23T13:59:03;19.87;42.79
76291;DHT22;65100;46.884;17.410;2024-03-23T14:01:29;19.86;44.17
76291;DHT22;65100;46.884;17.410;2024-03-23T14:03:55;19.87;44.18
76291;DHT22;65100;46.884;17.410;2024-03-23T14:06:20;19.92;45.08
76291;DHT22;65100;46.884;17.410;2024-03-23T14:08:46;19.89;46.58
76291;DHT22;65100;46.884;17.410;2024-03-23T14:11:14;19.81;44.66
76291;DHT22;65100;46.884;17.410;2024-03-23T14:13:39;19.83;45.01
76291;DHT22;65100;46.884;17.410;2024-03-23T14:16:06;19.90;45.20
76291;DHT22;65100;46.884;17.410;2024-03-23T14:18:31;20.10;44.38
76291;DHT22;65100;46.884;17.410;2024-03-23T14:20:58;20.25;44.06
76291;DHT22;65100;46.884;17.410;2024-03-23T14:23:28;20.30;43.80
76291;DHT22;65100;46.884;17.410;2024-03-23T14:26:03;20.40;44.20
76291;DHT22;65100;46.884;17.410;2024-03-23T14:28:28;20.37;44.46
76291;DHT22;65100;46.884;17.410;2024-03-23T14:30:55;20.33;43.86
76291;DHT22;65100;46.884;17.410;2024-03-23T14:33:24;20.23;45.01
76291;DHT22;65100;46.884;17.410;2024-03-23T14:35:55;20.17;44.18
76291;DHT22;65100;46.884;17.410;2024-03-23T14:38:22;20.19;45.71
76291;DHT22;65100;46.884;17.410;2024-03-23T14:40:48;20.29;45.10
76291;DHT22;65100;46.884;17.410;2024-03-23T14:43:14;20.43;43.14
76291;DHT22;65100;46.884;17.410;2024-03-23T14:46:12;20.56;44.76
76291;DHT22;65100;46.884;17.410;2024-03-23T14:48:39;20.64;42.99
76291;DHT22;65100;46.884;17.410;2024-03-23T14:51:05;20.57;43.77
76291;DHT22;65100;46.884;17.410;2024-03-23T14:53:44;20.64;44.46
76291;DHT22;65100;46.884;17.410;2024-03-23T14:56:10;20.60;43.19
76291;DHT22;65100;46.884;17.410;2024-03-23T14:58:43;20.60;42.80
76291;DHT22;65100;46.884;17.410;2024-03-23T15:01:10;20.67;44.29
76291;DHT22;65100;46.884;17.410;2024-03-23T15:03:39;20.57;42.16
76291;DHT22;65100;46.884;17.410;2024-03-23T15:06:06;20.53;43.96
76291;DHT22;65100;46.884;17.410;2024-03-23T15:08:31;20.50;43.26
76291;DHT22;65100;46.884;17.410;2024-03-23T15:11:01;20.40;43.19
76291;DHT22;65100;46.884;17.410;2024-03-23T15:13:34;20.36;43.48
76291;DHT22;65100;46.884;17.410;2024-03-23T15:15:59;20.43;43.55
76291;DHT22;65100;46.884;17.410;2024-03-23T15:18:25;20.34;43.34
76291;DHT22;65100;46.884;17.410;2024-03-23T15:20:55;20.17;44.03
76291;DHT22;65100;46.884;17.410;2024-03-23T15:23:21;20.29;44.96
76291;DHT22;65100;46.884;17.410;2024-03-23T15:25:56;20.23;44.62
76291;DHT22;65100;46.884;17.410;2024-03-23T15:28:25;20.25;45.83
76291;DHT22;65100;46.884;17.410;2024-03-23T15:31:09;20.22;44.05
76291;DHT22;65100;46.884;17.410;2024-03-23T15:33:35;20.22;43.75
76291;DHT22;65100;46.884;17.410;2024-03-23T15:36:02;20.17;44.97
76291;DHT22;65100;46.884;17.410;2024-03-23T15:38:27;20.12;45.79
76291;DHT22;65100;46.884;17.410;2024-03-23T15:40:54;19.97;43.28
76291;DHT22;65100;46.884;17.410;2024-03-23T15:43:20;19.99;45.76
76291;DHT22;65100;46.884;17.410;2024-03-23T15:45:55;19.85;45.70
76291;DHT22;65100;46.884;17.410;2024-03-23T15:48:22;19.78;44.60
76291;DHT22;65100;46.884;17.410;2024-03-23T15:50:51;19.58;43.87
76291;DHT22;65100;46.884;17.410;2024-03-23T15:53:21;19.47;44.12
76291;DHT22;65100;46.884;17.410;2024-03-23T15:58:18;19.47;44.04
76291;DHT22;65100;46.884;17.410;2024-03-23T16:00:44;19.22;44.60
76291;DHT22;65100;46.884;17.410;2024-03-23T16:03:09;19.15;46.45
76291;DHT22;65100;46.884;17.410;2024-03-23T16:05:35;19.11;45.33
76291;DHT22;65100;46.884;17.410;2024-03-23T16:08:00;19.05;46.39
76291;DHT22;65100;46.884;17.410;2024-03-23T16:10:26;19.05;45.95
76291;DHT22;65100;46.884;17.410;2024-03-23T16:12:51;19.12;45.64
76291;DHT22;65100;46.884;17.410;2024-03-23T16:15:17;19.11;45.28